Time;durP1;ratioP1;P1;durP2;ratioP2;P2;SDS_P1;SDS_P2;PMS_P1;PMS_P2;Temp;Humidity;BMP_temperature;BMP_pressure;BME280_temperature;BME280_humidity;BME280_pressure;Samples;Min_cycle;Max_cycle;Signal;HPM_P1;HPM_P2
2022/11/14 00:01:11;;;;;;;52.65;35.25;;;205.40;2252.80;;;;;;5139057;27;20015;-64
2022/11/14 00:03:37;;;;;;;152.63;103.35;;;205.40;2252.80;;;;;;5137870;27;20076;-67
2022/11/14 00:06:06;;;;;;;141.60;95.18;;;205.20;2252.80;;;;;;5143548;27;20019;-65
2022/11/14 00:08:32;;;;;;;128.90;86.93;;;204.90;2252.80;;;;;;5143709;27;20465;-66
2022/11/14 00:10:58;;;;;;;116.78;76.35;;;180.10;2252.80;;;;;;5141984;27;20033;-66
2022/11/14 00:13:23;;;;;;;133.15;86.57;;;204.90;2252.80;;;;;;5143801;27;20027;-66
2022/11/14 00:15:53;;;;;;;146.02;92.57;;;205.00;2252.80;;;;;;5143438;27;20019;-65
2022/11/14 00:18:19;;;;;;;252.05;144.40;;;205.00;2252.80;;;;;;5141673;27;20015;-68
2022/11/14 00:20:49;;;;;;;248.75;132.45;;;205.10;2252.80;;;;;;5143184;27;20023;-67
2022/11/14 00:23:15;;;;;;;87.00;51.75;;;205.10;2252.80;;;;;;5143668;27;20027;-68
2022/11/14 00:25:42;;;;;;;72.60;45.55;;;205.20;2252.80;;;;;;5141905;27;20377;-65
2022/11/14 00:28:08;;;;;;;102.60;63.75;;;205.20;2252.80;;;;;;5142750;27;20015;-67
2022/11/14 00:30:33;;;;;;;87.68;52.20;;;205.30;2252.80;;;;;;5143550;27;20079;-67
2022/11/14 00:32:59;;;;;;;82.15;48.25;;;205.20;2252.80;;;;;;5141618;27;20023;-69
2022/11/14 00:35:25;;;;;;;143.18;84.35;;;205.30;2252.80;;;;;;5143025;27;20015;-69
2022/11/14 00:37:50;;;;;;;170.68;101.18;;;205.30;2252.80;;;;;;5143198;27;20034;-67
2022/11/14 00:40:16;;;;;;;116.10;64.63;;;205.30;2252.80;;;;;;5141213;27;20081;-70
2022/11/14 00:42:42;;;;;;;210.07;103.95;;;205.30;2252.80;;;;;;5153835;27;20437;-65
2022/11/14 00:45:08;;;;;;;165.55;83.68;;;205.30;2252.80;;;;;;5154102;27;20114;-65
2022/11/14 00:47:34;;;;;;;104.82;55.97;;;205.30;2252.80;;;;;;5153907;27;20079;-66
2022/11/14 00:50:00;;;;;;;65.75;39.72;;;205.30;2252.80;;;;;;5153973;27;20027;-65
2022/11/14 00:52:25;;;;;;;76.60;45.60;;;205.30;2252.80;;;;;;5154171;27;20429;-65
2022/11/14 00:54:51;;;;;;;52.17;32.67;;;205.20;2252.80;;;;;;5154448;27;20026;-66
2022/11/14 00:57:17;;;;;;;45.65;30.02;;;205.20;2252.80;;;;;;5153966;27;20083;-70
2022/11/14 00:59:42;;;;;;;98.07;50.08;;;205.10;2252.80;;;;;;5153985;27;20037;-67
2022/11/14 01:02:08;;;;;;;120.78;66.38;;;205.10;2252.80;;;;;;5153290;27;20081;-69
2022/11/14 01:04:33;;;;;;;61.97;35.95;;;205.20;2252.80;;;;;;5135033;27;20027;-69
2022/11/14 01:06:59;;;;;;;58.70;35.22;;;205.20;2252.80;;;;;;5153811;27;20058;-69
2022/11/14 01:09:25;;;;;;;54.10;33.13;;;205.10;2252.80;;;;;;5153649;27;20023;-70
2022/11/14 01:11:50;;;;;;;51.30;29.33;;;205.10;2252.80;;;;;;5153908;27;20023;-69
2022/11/14 01:14:16;;;;;;;47.58;27.02;;;205.10;2252.80;;;;;;5153494;27;20062;-66
2022/11/14 01:16:42;;;;;;;29.45;20.75;;;205.00;2252.80;;;;;;5152898;27;20075;-67
2022/11/14 01:19:07;;;;;;;40.47;23.45;;;204.80;2252.80;;;;;;5153395;27;20098;-66
2022/11/14 01:21:33;;;;;;;34.00;22.45;;;180.10;2252.80;;;;;;5153271;27;20023;-67
2022/11/14 01:23:59;;;;;;;34.85;23.30;;;180.10;2252.80;;;;;;5153658;27;20448;-67
2022/11/14 01:26:24;;;;;;;44.67;26.63;;;180.00;2252.80;;;;;;5153400;27;20424;-66
2022/11/14 01:28:50;;;;;;;43.55;29.92;;;180.00;2252.80;;;;;;5153578;27;20026;-66
2022/11/14 01:31:20;;;;;;;35.10;24.30;;;179.90;2252.80;;;;;;5134492;27;20391;-65
2022/11/14 01:33:49;;;;;;;33.05;20.95;;;180.00;2252.80;;;;;;5153069;27;20023;-66
2022/11/14 01:36:15;;;;;;;34.83;22.20;;;180.00;2252.80;;;;;;5152813;27;20018;-66
2022/11/14 01:38:41;;;;;;;31.15;20.10;;;179.80;2252.80;;;;;;5153035;27;20031;-65
2022/11/14 01:41:06;;;;;;;34.72;21.40;;;179.70;2252.80;;;;;;5152883;27;20079;-66
2022/11/14 01:43:37;;;;;;;33.67;22.00;;;179.70;2252.80;;;;;;5153020;27;20050;-67
2022/11/14 01:46:13;;;;;;;32.35;20.13;;;179.80;2252.80;;;;;;5153212;27;20026;-66
2022/11/14 01:48:50;;;;;;;30.38;18.92;;;179.70;2252.80;;;;;;5152961;27;20086;-65
2022/11/14 01:51:36;;;;;;;30.70;18.85;;;179.70;2252.80;;;;;;5152733;27;20095;-64
2022/11/14 01:54:11;;;;;;;25.65;16.25;;;179.60;1945.60;;;;;;5152758;27;20102;-67
2022/11/14 01:56:45;;;;;;;31.77;20.17;;;179.50;2252.80;;;;;;5152596;27;20027;-67
2022/11/14 01:59:17;;;;;;;31.70;18.33;;;179.50;2252.80;;;;;;5153012;27;20019;-68
2022/11/14 02:01:48;;;;;;;24.90;17.30;;;179.50;2252.80;;;;;;5152668;27;20154;-67
2022/11/14 02:04:27;;;;;;;23.55;14.65;;;179.50;2252.80;;;;;;5152418;27;20031;-68
2022/11/14 02:06:56;;;;;;;24.05;16.70;;;179.60;2252.80;;;;;;5152944;27;20376;-67
2022/11/14 02:09:22;;;;;;;28.20;16.70;;;179.70;2252.80;;;;;;5152763;27;20027;-67
2022/11/14 02:11:48;;;;;;;30.58;20.90;;;179.70;2252.80;;;;;;5152375;27;20102;-66
2022/11/14 02:14:14;;;;;;;24.50;16.83;;;179.70;2252.80;;;;;;5152359;27;20026;-66
2022/11/14 02:16:41;;;;;;;28.88;17.83;;;179.70;2252.80;;;;;;5152581;27;20511;-67
2022/11/14 02:19:08;;;;;;;28.08;15.50;;;179.70;2252.80;;;;;;5152310;27;20082;-66
2022/11/14 02:21:34;;;;;;;22.20;16.25;;;179.70;2252.80;;;;;;5152428;27;20030;-66
2022/11/14 02:24:00;;;;;;;24.25;15.23;;;179.70;2252.80;;;;;;5152100;27;20114;-65
2022/11/14 02:26:25;;;;;;;25.08;14.70;;;179.80;2252.80;;;;;;5152337;27;20105;-65
2022/11/14 02:28:51;;;;;;;21.73;13.88;;;179.80;2252.80;;;;;;5151472;27;20026;-64
2022/11/14 02:31:17;;;;;;;22.13;12.82;;;179.80;2252.80;;;;;;5152049;27;20030;-64
2022/11/14 02:33:43;;;;;;;22.63;13.98;;;179.80;2252.80;;;;;;5152432;27;20176;-65
2022/11/14 02:36:08;;;;;;;24.90;15.25;;;179.80;2252.80;;;;;;5152219;27;20022;-65
2022/11/14 02:38:35;;;;;;;27.42;15.95;;;179.70;2252.80;;;;;;5151925;27;20039;-67
2022/11/14 02:41:01;;;;;;;27.15;15.30;;;179.60;2252.80;;;;;;5152082;27;20034;-67
2022/11/14 02:43:27;;;;;;;21.13;14.10;;;179.60;2252.80;;;;;;5151703;27;20107;-66
2022/11/14 02:45:53;;;;;;;23.17;13.52;;;179.70;2252.80;;;;;;5152148;27;20027;-64
2022/11/14 02:48:19;;;;;;;25.58;16.00;;;179.70;2252.80;;;;;;5152023;27;20037;-65
2022/11/14 02:50:47;;;;;;;21.60;14.75;;;179.70;2252.80;;;;;;5151737;27;20023;-64
2022/11/14 02:53:13;;;;;;;22.55;14.13;;;179.60;2252.80;;;;;;5151792;27;20096;-64
2022/11/14 02:55:39;;;;;;;23.15;14.00;;;179.60;2252.80;;;;;;5151855;27;20018;-70
2022/11/14 02:58:04;;;;;;;21.33;14.60;;;179.60;2252.80;;;;;;5151535;27;20053;-65
2022/11/14 03:00:30;;;;;;;22.15;15.23;;;179.60;2252.80;;;;;;5151915;27;20106;-65
2022/11/14 03:02:56;;;;;;;41.28;26.40;;;179.70;2252.80;;;;;;5151822;27;20027;-66
2022/11/14 03:05:22;;;;;;;39.13;22.63;;;179.80;2252.80;;;;;;5152013;27;20018;-67
2022/11/14 03:07:51;;;;;;;27.38;18.30;;;179.80;2252.80;;;;;;5151725;27;20018;-66
2022/11/14 03:10:17;;;;;;;38.63;24.90;;;179.70;2252.80;;;;;;5151589;27;20114;-66
2022/11/14 03:12:43;;;;;;;26.88;17.40;;;179.70;2227.20;;;;;;5151730;27;20019;-67
2022/11/14 03:15:09;;;;;;;26.48;17.35;;;179.60;2252.80;;;;;;5151481;27;20026;-66
2022/11/14 03:17:35;;;;;;;33.75;21.13;;;179.70;2252.80;;;;;;5151523;27;20540;-67
2022/11/14 03:20:00;;;;;;;26.70;19.85;;;179.80;2252.80;;;;;;5151738;27;20106;-66
2022/11/14 03:22:27;;;;;;;26.73;18.27;;;179.80;2252.80;;;;;;5151359;27;20030;-67
2022/11/14 03:24:52;;;;;;;35.55;22.17;;;179.80;2252.80;;;;;;5151794;27;20488;-67
2022/11/14 03:27:19;;;;;;;31.02;19.20;;;179.60;1868.80;;;;;;5151335;27;20022;-67
2022/11/14 03:29:46;;;;;;;23.90;14.95;;;179.70;1996.80;;;;;;5151350;27;20464;-67
2022/11/14 03:32:12;;;;;;;23.90;15.75;;;179.80;2252.80;;;;;;5133275;27;20027;-67
2022/11/14 03:34:38;;;;;;;23.05;14.43;;;179.90;1971.20;;;;;;5151246;27;20027;-67
2022/11/14 03:37:03;;;;;;;23.77;15.07;;;179.90;2022.40;;;;;;5151650;27;20453;-66
2022/11/14 03:39:29;;;;;;;31.15;20.45;;;180.00;1971.20;;;;;;5152552;27;20109;-66
2022/11/14 03:41:55;;;;;;;29.17;19.45;;;180.10;2252.80;;;;;;5155084;27;20039;-66
2022/11/14 03:44:20;;;;;;;31.77;20.70;;;180.10;2252.80;;;;;;5155404;27;20034;-67
2022/11/14 03:46:46;;;;;;;33.03;21.30;;;180.10;2252.80;;;;;;5155122;27;20029;-67
2022/11/14 03:49:12;;;;;;;28.55;17.98;;;180.10;2252.80;;;;;;5155411;27;20114;-67
2022/11/14 03:51:37;;;;;;;29.20;21.83;;;180.10;2252.80;;;;;;5155269;27;20488;-67
2022/11/14 03:54:03;;;;;;;28.73;18.25;;;204.80;2252.80;;;;;;5155321;27;20036;-67
2022/11/14 03:56:29;;;;;;;27.95;19.15;;;204.90;2252.80;;;;;;5155294;27;20030;-65
2022/11/14 03:58:54;;;;;;;20.95;15.50;;;204.80;2252.80;;;;;;5155015;27;20535;-66
2022/11/14 04:01:20;;;;;;;25.88;18.52;;;204.80;2252.80;;;;;;5155117;27;20015;-67
2022/11/14 04:03:46;;;;;;;25.42;20.17;;;204.80;2252.80;;;;;;5135820;27;20057;-65
2022/11/14 04:06:11;;;;;;;40.88;29.50;;;204.80;2252.80;;;;;;5136392;27;20030;-65
2022/11/14 04:08:40;;;;;;;27.60;21.70;;;204.80;2252.80;;;;;;5154693;27;20105;-65
2022/11/14 04:11:06;;;;;;;24.02;15.05;;;180.10;2252.80;;;;;;5155267;27;20113;-65
2022/11/14 04:13:32;;;;;;;21.15;13.23;;;180.10;2252.80;;;;;;5155092;27;20375;-65
2022/11/14 04:15:58;;;;;;;22.27;15.63;;;180.00;2252.80;;;;;;5154542;27;20105;-68
2022/11/14 04:18:25;;;;;;;19.65;14.40;;;180.10;2252.80;;;;;;5154969;27;20022;-65
2022/11/14 04:20:51;;;;;;;20.33;14.38;;;180.00;2252.80;;;;;;5154847;27;20060;-64
2022/11/14 04:23:18;;;;;;;23.00;17.67;;;180.00;2252.80;;;;;;5154458;27;20041;-64
2022/11/14 04:25:44;;;;;;;23.42;14.52;;;180.00;2252.80;;;;;;5154495;27;20098;-65
2022/11/14 04:28:11;;;;;;;20.85;15.38;;;180.00;2252.80;;;;;;5154643;27;20022;-64
2022/11/14 04:30:37;;;;;;;23.67;14.40;;;180.00;2252.80;;;;;;5154369;27;20106;-64
2022/11/14 04:33:02;;;;;;;21.00;15.02;;;180.00;2252.80;;;;;;5154707;27;20105;-71
2022/11/14 04:35:28;;;;;;;22.20;14.27;;;179.90;2252.80;;;;;;5154473;27;20057;-64
2022/11/14 04:37:54;;;;;;;30.55;15.30;;;179.70;2252.80;;;;;;5154252;27;20023;-64
2022/11/14 04:40:19;;;;;;;23.52;13.88;;;179.70;2252.80;;;;;;5154397;27;20039;-64
2022/11/14 04:42:45;;;;;;;24.88;17.30;;;179.70;2252.80;;;;;;5154060;27;20074;-66
2022/11/14 04:45:11;;;;;;;25.17;17.60;;;179.70;2252.80;;;;;;5154420;27;20452;-67
2022/11/14 04:47:37;;;;;;;25.65;15.73;;;179.70;2252.80;;;;;;5154068;27;20027;-66
2022/11/14 04:50:03;;;;;;;22.45;15.77;;;179.70;2252.80;;;;;;5154164;27;20079;-67
2022/11/14 04:52:29;;;;;;;20.65;14.10;;;179.70;2252.80;;;;;;5153068;27;20014;-66
2022/11/14 04:54:54;;;;;;;23.80;14.93;;;179.70;2252.80;;;;;;5154033;27;20094;-66
2022/11/14 04:57:20;;;;;;;21.65;15.50;;;179.70;2252.80;;;;;;5154068;27;20483;-66
2022/11/14 04:59:46;;;;;;;28.20;20.48;;;179.70;2252.80;;;;;;5153714;27;20540;-67
2022/11/14 05:02:11;;;;;;;34.22;23.02;;;179.60;2252.80;;;;;;5153814;27;20428;-70
2022/11/14 05:04:37;;;;;;;23.55;15.07;;;179.60;2252.80;;;;;;5153600;27;20090;-66
2022/11/14 05:07:03;;;;;;;23.73;14.57;;;179.70;2252.80;;;;;;5153912;27;20022;-66
2022/11/14 05:09:29;;;;;;;20.73;13.65;;;179.60;2252.80;;;;;;5153662;27;20042;-65
2022/11/14 05:11:55;;;;;;;20.98;15.15;;;179.70;2252.80;;;;;;5153862;27;20388;-66
2022/11/14 05:14:20;;;;;;;21.15;16.15;;;179.60;2252.80;;;;;;5153845;27;20026;-67
2022/11/14 05:16:46;;;;;;;25.08;17.63;;;179.60;2252.80;;;;;;5153306;27;20053;-67
2022/11/14 05:19:12;;;;;;;21.02;16.63;;;179.60;2252.80;;;;;;5153861;27;20019;-66
2022/11/14 05:21:37;;;;;;;22.02;16.65;;;179.70;2252.80;;;;;;5153461;27;20519;-66
2022/11/14 05:24:03;;;;;;;24.52;14.48;;;179.70;2252.80;;;;;;5153504;27;20511;-66
2022/11/14 05:26:29;;;;;;;20.17;13.18;;;179.70;2252.80;;;;;;5153524;27;20030;-66
2022/11/14 05:28:55;;;;;;;18.70;13.77;;;179.70;2252.80;;;;;;5153284;27;20029;-66
2022/11/14 05:31:21;;;;;;;20.20;13.48;;;179.70;2252.80;;;;;;5153374;27;20027;-66
2022/11/14 05:33:46;;;;;;;18.67;13.57;;;179.80;2252.80;;;;;;5153160;27;20105;-63
2022/11/14 05:36:14;;;;;;;22.30;13.85;;;179.80;2252.80;;;;;;5153369;27;20018;-63
2022/11/14 05:38:41;;;;;;;19.60;15.02;;;179.80;2252.80;;;;;;5153352;27;20027;-63
2022/11/14 05:41:08;;;;;;;19.70;14.45;;;179.90;2252.80;;;;;;5152963;27;20026;-65
2022/11/14 05:43:33;;;;;;;20.20;13.02;;;179.90;2252.80;;;;;;5152800;27;20057;-68
2022/11/14 05:46:04;;;;;;;22.38;13.45;;;180.00;2252.80;;;;;;5153240;27;20023;-69
2022/11/14 05:48:31;;;;;;;17.42;10.90;;;180.00;2252.80;;;;;;5153065;27;20027;-70
2022/11/14 05:50:58;;;;;;;23.15;12.52;;;180.10;2252.80;;;;;;5152867;27;20047;-68
2022/11/14 05:53:24;;;;;;;19.85;11.30;;;204.80;2252.80;;;;;;5153043;27;20079;-66
2022/11/14 05:55:50;;;;;;;20.38;13.35;;;204.90;2252.80;;;;;;5152977;27;20037;-66
2022/11/14 05:58:16;;;;;;;17.65;12.60;;;204.90;2252.80;;;;;;5152711;27;20472;-69
2022/11/14 06:00:42;;;;;;;19.85;13.15;;;204.90;2252.80;;;;;;5152843;27;20018;-70
2022/11/14 06:03:08;;;;;;;18.55;13.05;;;204.90;2252.80;;;;;;5152123;27;20148;-66
2022/11/14 06:05:34;;;;;;;28.20;19.75;;;205.00;2252.80;;;;;;5141937;27;20033;-65
2022/11/14 06:08:00;;;;;;;101.22;61.28;;;205.00;2252.80;;;;;;5140552;27;20480;-68
2022/11/14 06:10:27;;;;;;;102.78;67.40;;;205.10;2252.80;;;;;;5140113;27;20087;-69
2022/11/14 06:12:52;;;;;;;57.03;41.60;;;205.00;2252.80;;;;;;5142026;27;20099;-68
2022/11/14 06:15:18;;;;;;;43.92;29.08;;;204.90;2252.80;;;;;;5140179;27;20464;-66
2022/11/14 06:17:44;;;;;;;55.28;36.80;;;204.90;2252.80;;;;;;5140457;27;20019;-67
2022/11/14 06:20:12;;;;;;;46.03;33.47;;;204.90;2252.80;;;;;;5136705;27;20114;-72
2022/11/14 06:22:39;;;;;;;55.67;38.35;;;204.90;2252.80;;;;;;5131435;27;20036;-65
2022/11/14 06:25:05;;;;;;;215.02;166.80;;;205.00;2252.80;;;;;;5131569;27;20023;-67
2022/11/14 06:27:31;;;;;;;83.47;57.13;;;204.80;2252.80;;;;;;5131752;27;20024;-66
2022/11/14 06:29:57;;;;;;;101.30;77.93;;;204.90;2252.80;;;;;;5133554;27;20050;-67
2022/11/14 06:32:22;;;;;;;100.03;74.43;;;204.90;2252.80;;;;;;5131555;27;20035;-67
2022/11/14 06:34:48;;;;;;;181.68;112.35;;;204.90;2252.80;;;;;;5131547;27;20023;-67
2022/11/14 06:37:13;;;;;;;105.63;73.50;;;204.90;2252.80;;;;;;5131448;27;20894;-67
2022/11/14 06:39:39;;;;;;;97.35;68.82;;;205.10;2252.80;;;;;;5131435;27;20058;-66
2022/11/14 06:42:05;;;;;;;68.55;46.85;;;205.30;2252.80;;;;;;5130886;27;20027;-67
2022/11/14 06:44:30;;;;;;;61.83;43.03;;;205.40;2252.80;;;;;;5131228;27;20033;-67
2022/11/14 06:46:56;;;;;;;54.42;39.33;;;205.60;2252.80;;;;;;5131062;27;20132;-67
2022/11/14 06:49:23;;;;;;;56.90;40.85;;;205.70;2252.80;;;;;;5131317;27;20449;-67
2022/11/14 06:51:50;;;;;;;77.07;56.08;;;205.70;2252.80;;;;;;5131196;27;20015;-70
2022/11/14 06:54:16;;;;;;;86.22;63.60;;;205.70;2252.80;;;;;;5131159;27;20051;-68
2022/11/14 06:56:41;;;;;;;121.65;76.95;;;230.60;2252.80;;;;;;5131112;27;20046;-67
2022/11/14 06:59:07;;;;;;;239.32;148.07;;;205.70;2252.80;;;;;;5130998;27;20091;-67
2022/11/14 07:01:33;;;;;;;275.75;168.80;;;205.50;2252.80;;;;;;5130966;27;20019;-67
2022/11/14 07:04:01;;;;;;;238.95;146.05;;;205.40;2252.80;;;;;;5130672;28;20074;-67
2022/11/14 07:06:28;;;;;;;225.73;143.40;;;205.50;2252.80;;;;;;5130791;28;20023;-68
2022/11/14 07:08:56;;;;;;;228.38;140.60;;;205.60;2252.80;;;;;;5130956;28;20159;-68
2022/11/14 07:11:25;;;;;;;208.73;142.32;;;205.60;2252.80;;;;;;5135677;27;20118;-71
2022/11/14 07:13:51;;;;;;;217.23;143.07;;;205.60;2252.80;;;;;;5133150;27;20023;-69
2022/11/14 07:16:18;;;;;;;203.00;133.40;;;205.70;2252.80;;;;;;5135036;27;20031;-68
2022/11/14 07:18:44;;;;;;;199.63;143.85;;;230.40;2252.80;;;;;;5134929;27;20110;-68
2022/11/14 07:21:12;;;;;;;198.68;141.32;;;230.40;2252.80;;;;;;5135383;27;20122;-68
2022/11/14 07:23:38;;;;;;;204.60;140.07;;;230.40;2252.80;;;;;;5134871;27;20031;-66
2022/11/14 07:26:06;;;;;;;211.15;145.13;;;230.50;2252.80;;;;;;5134953;27;20023;-70
2022/11/14 07:28:41;;;;;;;202.05;143.38;;;230.60;2252.80;;;;;;5135233;27;20038;-69
2022/11/14 07:31:08;;;;;;;199.73;146.10;;;230.90;2252.80;;;;;;5134768;27;20058;-70
2022/11/14 07:33:34;;;;;;;198.07;146.93;;;256.50;2252.80;;;;;;5134855;27;20485;-69
2022/11/14 07:36:00;;;;;;;203.85;154.23;;;307.30;2304.00;;;;;;5135158;27;20023;-69
2022/11/14 07:38:26;;;;;;;211.48;157.50;;;333.70;2329.60;;;;;;5134557;27;20084;-71
2022/11/14 07:41:04;;;;;;;141.88;116.22;;;384.10;2329.60;;;;;;5154804;27;20031;-69
2022/11/14 07:43:30;;;;;;;174.35;146.38;;;359.00;2329.60;;;;;;5155357;27;20085;-69
2022/11/14 07:46:00;;;;;;;195.77;159.95;;;359.00;2329.60;;;;;;5155490;27;20023;-70
2022/11/14 07:48:27;;;;;;;204.73;166.18;;;384.40;2329.60;;;;;;5155563;27;20058;-70
2022/11/14 07:50:52;;;;;;;197.75;170.32;;;410.50;2329.60;;;;;;5155716;27;20025;-70
2022/11/14 07:53:18;;;;;;;194.85;169.23;;;460.90;2150.40;;;;;;5155132;27;20422;-70
2022/11/14 07:55:44;;;;;;;214.38;183.95;;;435.70;2150.40;;;;;;5155122;27;20031;-70
2022/11/14 07:58:10;;;;;;;175.60;151.75;;;435.60;2150.40;;;;;;5154842;27;20015;-70
2022/11/14 08:00:35;;;;;;;155.10;136.48;;;435.60;2124.80;;;;;;5136490;27;20499;-69
2022/11/14 08:03:01;;;;;;;143.93;120.60;;;460.90;2150.40;;;;;;5134386;27;20442;-71
2022/11/14 08:05:27;;;;;;;144.48;119.45;;;461.70;2048.00;;;;;;5134045;27;20030;-66
2022/11/14 08:07:53;;;;;;;105.03;93.47;;;486.60;1996.80;;;;;;5139302;27;20027;-66
2022/11/14 08:10:19;;;;;;;103.43;92.10;;;486.80;1996.80;;;;;;5140709;27;20035;-66
2022/11/14 08:12:45;;;;;;;91.10;81.10;;;512.00;1894.40;;;;;;5141227;27;20034;-64
2022/11/14 08:15:12;;;;;;;201.32;181.10;;;512.30;1894.40;;;;;;5135918;27;20484;-63
2022/11/14 08:17:38;;;;;;;85.53;74.93;;;512.60;1894.40;;;;;;5132953;27;20464;-64
2022/11/14 08:20:05;;;;;;;74.75;64.55;;;512.30;1894.40;;;;;;5133005;27;20043;-60
2022/11/14 08:22:31;;;;;;;71.03;63.45;;;512.80;1868.80;;;;;;5133203;27;20038;-63
2022/11/14 08:24:57;;;;;;;70.10;60.65;;;512.10;1894.40;;;;;;5132749;27;20015;-57
2022/11/14 08:27:23;;;;;;;83.50;67.63;;;512.30;1868.80;;;;;;5133390;27;20083;-63
2022/11/14 08:29:50;;;;;;;71.75;63.40;;;512.40;1920.00;;;;;;5133026;27;20054;-63
2022/11/14 08:32:16;;;;;;;66.72;59.40;;;538.20;1792.00;;;;;;5114433;27;20700;-61
2022/11/14 08:34:42;;;;;;;68.85;61.53;;;512.80;1868.80;;;;;;5139766;27;20364;-63
2022/11/14 08:37:08;;;;;;;72.32;64.55;;;563.20;1817.60;;;;;;5153896;27;20026;-60
2022/11/14 08:39:33;;;;;;;71.82;63.92;;;563.20;1792.00;;;;;;5154359;27;20027;-62
2022/11/14 08:41:59;;;;;;;73.28;62.92;;;538.20;1817.60;;;;;;5154290;27;20105;-62
2022/11/14 08:44:25;;;;;;;74.78;66.95;;;538.20;1792.00;;;;;;5154297;27;20023;-61
2022/11/14 08:46:52;;;;;;;81.25;66.90;;;537.60;1843.20;;;;;;5154326;27;20043;-62
2022/11/14 08:49:17;;;;;;;75.82;62.53;;;538.00;1817.60;;;;;;5154333;27;20029;-62
2022/11/14 08:51:43;;;;;;;73.35;62.72;;;512.50;1868.80;;;;;;5154014;27;20046;-62
2022/11/14 08:54:09;;;;;;;70.10;62.35;;;512.40;1894.40;;;;;;5154169;27;20015;-58
2022/11/14 08:56:35;;;;;;;68.28;60.92;;;512.50;1868.80;;;;;;5153710;27;20113;-62
2022/11/14 08:59:04;;;;;;;73.45;62.90;;;563.90;1766.40;;;;;;5154060;27;20062;-57
2022/11/14 09:01:31;;;;;;;75.72;67.63;;;538.30;1792.00;;;;;;5153820;27;20131;-56
2022/11/14 09:03:58;;;;;;;102.45;82.80;;;563.80;1766.40;;;;;;5153737;27;20524;-61
2022/11/14 09:06:24;;;;;;;88.38;74.85;;;563.70;1792.00;;;;;;5153858;27;20027;-58
2022/11/14 09:08:50;;;;;;;83.50;69.13;;;588.90;1740.80;;;;;;5147619;27;20042;-63
2022/11/14 09:11:15;;;;;;;66.80;59.58;;;589.00;1715.20;;;;;;5150449;27;20116;-62
2022/11/14 09:13:41;;;;;;;74.10;66.03;;;563.80;1792.00;;;;;;5145213;27;20027;-64
2022/11/14 09:16:07;;;;;;;69.20;61.80;;;563.60;1766.40;;;;;;5132606;27;20023;-61
2022/11/14 09:18:33;;;;;;;65.70;58.58;;;563.50;1792.00;;;;;;5132999;27;20168;-61
2022/11/14 09:21:00;;;;;;;68.63;61.42;;;563.90;1766.40;;;;;;5132535;27;20027;-57
2022/11/14 09:23:26;;;;;;;64.18;53.05;;;537.90;1868.80;;;;;;5132541;27;20027;-58
2022/11/14 09:25:53;;;;;;;58.38;50.35;;;538.20;1817.60;;;;;;5132976;27;20038;-62
2022/11/14 09:28:19;;;;;;;57.90;50.70;;;512.10;1894.40;;;;;;5132700;27;20037;-57
2022/11/14 09:30:45;;;;;;;53.03;46.45;;;487.00;1945.60;;;;;;5132449;27;20020;-57
2022/11/14 09:33:10;;;;;;;54.67;46.83;;;512.80;1843.20;;;;;;5132519;27;20024;-57
2022/11/14 09:35:36;;;;;;;58.42;49.45;;;512.40;1843.20;;;;;;5132616;27;20019;-63
2022/11/14 09:38:08;;;;;;;62.97;54.00;;;512.90;1868.80;;;;;;5131809;27;20380;-57
2022/11/14 09:40:48;;;;;;;57.40;47.85;;;537.60;1868.80;;;;;;5132455;27;20038;-58
2022/11/14 09:43:37;;;;;;;54.60;46.03;;;538.00;1843.20;;;;;;5132099;27;20051;-59
2022/11/14 09:46:10;;;;;;;50.50;45.00;;;537.90;1817.60;;;;;;5132319;27;20114;-61
2022/11/14 09:48:36;;;;;;;49.63;41.33;;;512.80;1843.20;;;;;;5132033;27;20035;-62
2022/11/14 09:51:05;;;;;;;47.72;42.85;;;512.90;1843.20;;;;;;5132281;27;20356;-57
2022/11/14 09:53:36;;;;;;;47.95;43.03;;;538.30;1792.00;;;;;;5132247;27;20415;-57
2022/11/14 09:56:02;;;;;;;55.45;47.42;;;512.50;1868.80;;;;;;5132113;27;20031;-59
2022/11/14 09:58:28;;;;;;;48.22;43.15;;;512.30;1868.80;;;;;;5131788;27;20080;-59
2022/11/14 10:00:59;;;;;;;50.72;43.40;;;487.10;1894.40;;;;;;5132192;27;21056;-57
2022/11/14 10:03:53;;;;;;;51.53;43.65;;;461.50;1996.80;;;;;;5131788;27;20108;-57
2022/11/14 10:06:37;;;;;;;;;;;436.10;2073.60;;;;;;5132046;27;20057;-59
2022/11/14 10:09:40;;;;;;;54.88;40.42;;;460.80;2124.80;;;;;;5131919;27;20250;-63
2022/11/14 10:12:25;;;;;;;50.80;39.70;;;435.90;2124.80;;;;;;5131833;27;20366;-61
2022/11/14 10:15:11;;;;;;;51.28;40.30;;;410.20;2252.80;;;;;;5131872;27;20023;-64
2022/11/14 10:17:48;;;;;;;51.90;40.25;;;410.20;2278.40;;;;;;5131676;27;20019;-61
2022/11/14 10:20:50;;;;;;;48.90;39.45;;;410.30;2304.00;;;;;;5131559;27;20059;-61
2022/11/14 10:23:30;;;;;;;52.60;37.65;;;410.40;2355.20;;;;;;5048067;28;20060;-62
2022/11/14 10:26:07;;;;;;;49.08;36.78;;;410.30;2355.20;;;;;;5048199;28;20033;-57
2022/11/14 10:28:45;;;;;;;65.40;55.17;;;409.90;2355.20;;;;;;5048333;28;20079;-57
2022/11/14 10:31:25;;;;;;;42.80;31.70;;;410.00;2355.20;;;;;;5048322;28;20033;-60
2022/11/14 10:34:06;;;;;;;49.30;35.58;;;409.70;2355.20;;;;;;5048245;28;20145;-60
2022/11/14 10:36:49;;;;;;;44.30;31.90;;;384.70;2329.60;;;;;;5048266;28;20132;-57
2022/11/14 10:39:23;;;;;;;50.75;38.28;;;409.70;2355.20;;;;;;5048114;28;20123;-57
2022/11/14 10:41:55;;;;;;;51.25;36.08;;;409.70;2355.20;;;;;;5047847;28;20041;-56
2022/11/14 10:44:27;;;;;;;50.05;38.65;;;384.80;2329.60;;;;;;5047972;28;20037;-57
2022/11/14 10:47:02;;;;;;;55.88;36.88;;;409.70;2355.20;;;;;;5048212;28;20032;-57
2022/11/14 10:49:34;;;;;;;55.00;39.53;;;409.90;2355.20;;;;;;5029780;28;20036;-57
2022/11/14 10:52:04;;;;;;;69.72;49.28;;;409.80;2355.20;;;;;;5047892;28;20115;-58
2022/11/14 10:54:55;;;;;;;54.65;38.50;;;409.60;2355.20;;;;;;5031259;28;20108;-60
2022/11/14 10:57:22;;;;;;;48.55;38.97;;;409.70;2355.20;;;;;;5045571;28;20383;-56
2022/11/14 10:59:47;;;;;;;49.78;35.60;;;409.60;2355.20;;;;;;5070981;27;20031;-58
2022/11/14 11:02:14;;;;;;;56.58;44.40;;;409.60;2355.20;;;;;;5129617;27;20069;-56
2022/11/14 11:04:41;;;;;;;46.08;34.05;;;384.90;2329.60;;;;;;5129536;28;20031;-59
2022/11/14 11:07:07;;;;;;;49.35;37.78;;;409.70;2355.20;;;;;;5129109;28;20130;-57
2022/11/14 11:12:42;;;;;;;43.25;32.65;;;409.70;2355.20;;;;;;5129537;28;20046;-57
2022/11/14 11:15:16;;;;;;;47.55;34.80;;;410.20;2355.20;;;;;;5129210;28;20099;-57
2022/11/14 11:17:54;;;;;;;44.92;32.03;;;410.00;2355.20;;;;;;5129339;28;20053;-57
2022/11/14 11:20:28;;;;;;;50.03;36.17;;;410.20;2355.20;;;;;;5129287;28;20372;-59
2022/11/14 11:23:06;;;;;;;49.15;34.38;;;409.90;2355.20;;;;;;5128699;28;20059;-59
2022/11/14 11:25:33;;;;;;;45.88;32.90;;;410.10;2355.20;;;;;;5129262;28;20488;-60
2022/11/14 11:28:12;;;;;;;44.60;35.08;;;410.20;2355.20;;;;;;5128960;28;20023;-57
2022/11/14 11:30:38;;;;;;;46.63;35.20;;;410.00;2355.20;;;;;;5129359;28;20054;-61
2022/11/14 11:33:35;;;;;;;58.05;41.58;;;409.90;2355.20;;;;;;5131006;28;20043;-57
2022/11/14 11:36:04;;;;;;;56.25;39.42;;;410.00;2355.20;;;;;;5111123;28;20031;-57
2022/11/14 11:38:31;;;;;;;50.42;36.25;;;410.00;2355.20;;;;;;5130686;28;20034;-60
2022/11/14 11:41:23;;;;;;;53.83;39.13;;;410.00;2355.20;;;;;;5130521;28;20023;-57
2022/11/14 11:44:02;;;;;;;69.00;49.05;;;409.80;2355.20;;;;;;5130363;28;20051;-57
2022/11/14 11:46:41;;;;;;;52.80;40.28;;;409.80;2355.20;;;;;;5130392;28;20028;-58
2022/11/14 11:49:26;;;;;;;57.13;40.65;;;410.00;2355.20;;;;;;5130414;28;20027;-57
2022/11/14 11:51:54;;;;;;;70.40;52.90;;;410.00;2355.20;;;;;;5130622;28;20023;-61
2022/11/14 11:54:32;;;;;;;75.75;54.00;;;410.00;2355.20;;;;;;5128978;28;20422;-60
2022/11/14 11:57:01;;;;;;;66.25;49.13;;;410.00;2355.20;;;;;;5128775;28;20110;-61
2022/11/14 11:59:42;;;;;;;74.22;54.42;;;410.00;2355.20;;;;;;5128686;28;20504;-57
2022/11/14 12:02:26;;;;;;;69.53;51.53;;;410.20;2355.20;;;;;;5132253;27;20062;-62
2022/11/14 12:04:55;;;;;;;63.20;48.65;;;410.30;2355.20;;;;;;5132936;27;20134;-61